»·PEaware :: QXE1014 KPDX-KGEG

QXE1014 :: KPDX-KGEG

FLIGHT INFORMATION

Flight Status: Arrived
Operator:
Horizon Air
More flights by this operator :: More flights under this callsign
Pilot: Jim M. (18055)
Aircraft: DEHAVILLAND DASH 8 400
(DH8D)
More flights by this aircraft type
Origin: KPDX Portland Intl
United States
Destination: KGEG Spokane Intl
United States
More flights between these airports :: More routes between these airports
Route: BTG PAPPS ZOOMR ZOOMR1
File this flight plan on PilotEdge
Remarks:
Altitude:
(Current/Filed)
19,000ft
Speed:
(Current/Filed)
350kts
Departed: 14-Dec-18 02:48 PM
Arrived: 14-Dec-18 03:39 PM
Distance/Time
Traveled:
242nm/0:51
Distance/Time
To Go:
Arrived

Flight Plot

Page will automatically refresh every two minutes.


Map Options




Map Legend


Flown Route
Filed Route
Departure Airport
Arrival Airport
Navaid (VOR, NDB)
Fix

Horizontal Profiles

Position Reports

Time Latitude Longitude Heading Altitude Ground
Speed
14-Dec-18 13:52 45.586950 -122.592795 47 37ft 0kts
14-Dec-18 13:53 45.586950 -122.592795 47 37ft 0kts
14-Dec-18 13:54 45.586950 -122.592795 47 37ft 0kts
14-Dec-18 13:55 45.586950 -122.592795 47 37ft 0kts
14-Dec-18 13:56 45.586950 -122.592795 47 37ft 0kts
14-Dec-18 13:57 45.586950 -122.592795 47 37ft 0kts
14-Dec-18 13:58 45.586950 -122.592795 47 37ft 0kts
14-Dec-18 13:59 45.586950 -122.592795 47 37ft 0kts
14-Dec-18 14:00 45.586950 -122.592795 47 37ft 0kts
14-Dec-18 14:01 45.586950 -122.592795 47 37ft 0kts
14-Dec-18 14:02 45.586950 -122.592795 47 37ft 0kts
14-Dec-18 14:03 45.586950 -122.592795 47 37ft 0kts
14-Dec-18 14:04 45.586950 -122.592795 47 37ft 0kts
14-Dec-18 14:05 45.586950 -122.592795 47 37ft 0kts
14-Dec-18 14:06 45.586950 -122.592795 47 37ft 0kts
14-Dec-18 14:07 45.586950 -122.592795 47 37ft 0kts
14-Dec-18 14:08 45.586950 -122.592795 47 37ft 0kts
14-Dec-18 14:09 45.586950 -122.592795 47 37ft 0kts
14-Dec-18 14:10 45.586950 -122.592795 47 37ft 0kts
14-Dec-18 14:11 45.586950 -122.592795 47 37ft 0kts
14-Dec-18 14:12 45.586950 -122.592795 47 37ft 0kts
14-Dec-18 14:13 45.586950 -122.592795 47 37ft 0kts
14-Dec-18 14:14 45.586950 -122.592795 47 37ft 0kts
14-Dec-18 14:15 45.586950 -122.592795 47 37ft 0kts
14-Dec-18 14:16 45.586950 -122.592795 47 37ft 0kts
14-Dec-18 14:17 45.586950 -122.592795 47 37ft 0kts
14-Dec-18 14:18 45.586950 -122.592795 47 37ft 0kts
14-Dec-18 14:19 45.586950 -122.592795 47 37ft 0kts
14-Dec-18 14:20 45.586950 -122.592795 47 37ft 0kts
14-Dec-18 14:21 45.586950 -122.592795 47 37ft 0kts
14-Dec-18 14:22 45.586950 -122.592795 47 37ft 0kts
14-Dec-18 14:23 45.586950 -122.592795 47 37ft 0kts
14-Dec-18 14:24 45.586950 -122.592795 47 37ft 0kts
14-Dec-18 14:25 45.586950 -122.592795 47 37ft 0kts
14-Dec-18 14:26 45.586950 -122.592795 47 37ft 0kts
14-Dec-18 14:27 45.586950 -122.592795 47 37ft 0kts
14-Dec-18 14:28 45.586950 -122.592795 47 37ft 0kts
14-Dec-18 14:29 45.586950 -122.592795 47 37ft 0kts
14-Dec-18 14:30 45.586803 -122.593026 48 37ft 2kts
14-Dec-18 14:31 45.586334 -122.593608 5 37ft 2kts
14-Dec-18 14:32 45.586068 -122.593398 309 37ft 0kts
14-Dec-18 14:33 45.586068 -122.593398 309 37ft 0kts
14-Dec-18 14:34 45.586068 -122.593398 309 37ft 0kts
14-Dec-18 14:35 45.586068 -122.593398 309 37ft 0kts
14-Dec-18 14:36 45.586068 -122.593398 309 37ft 0kts
14-Dec-18 14:37 45.586453 -122.594052 310 37ft 6kts
14-Dec-18 14:38 45.587818 -122.596909 297 37ft 12kts
14-Dec-18 14:39 45.589953 -122.602796 299 37ft 13kts
14-Dec-18 14:40 45.592358 -122.600817 47 37ft 14kts
14-Dec-18 14:41 45.594201 -122.597915 44 37ft 8kts
14-Dec-18 14:42 45.594525 -122.597286 294 37ft 1kts
14-Dec-18 14:43 45.594588 -122.597293 7 37ft 0kts
14-Dec-18 14:44 45.594588 -122.597293 7 37ft 0kts
14-Dec-18 14:46 45.594588 -122.597293 7 37ft 0kts
14-Dec-18 14:47 45.594969 -122.596221 107 37ft 16kts
14-Dec-18 14:48 45.582300 -122.558340 108 1371ft 130kts
14-Dec-18 14:49 45.565035 -122.505634 119 3543ft 166kts
14-Dec-18 14:50 45.546536 -122.445462 89 6162ft 190kts
14-Dec-18 14:51 45.578170 -122.378240 56 8546ft 224kts
14-Dec-18 14:52 45.618466 -122.307128 55 10812ft 248kts
14-Dec-18 14:53 45.663252 -122.230464 55 12764ft 264kts
14-Dec-18 14:54 45.703222 -122.145631 73 14670ft 261kts
14-Dec-18 14:55 45.734936 -122.052485 74 16360ft 269kts
14-Dec-18 14:56 45.767346 -121.956210 75 17885ft 275kts
14-Dec-18 14:57 45.800783 -121.855168 75 18723ft 306kts
14-Dec-18 14:58 45.838174 -121.739680 73 18752ft 346kts
14-Dec-18 14:59 45.879167 -121.613905 72 18752ft 370kts
14-Dec-18 15:00 45.922412 -121.481361 72 18753ft 383kts
14-Dec-18 15:01 45.966075 -121.347419 72 18750ft 386kts
14-Dec-18 15:02 46.009843 -121.212633 72 18755ft 386kts
14-Dec-18 15:03 46.053634 -121.077452 72 18755ft 385kts
14-Dec-18 15:04 46.096275 -120.945121 72 18757ft 381kts
14-Dec-18 15:04 46.131573 -120.834783 72 18759ft 380kts
14-Dec-18 15:06 46.181015 -120.679549 71 18762ft 378kts
14-Dec-18 15:06 46.216003 -120.569239 71 18765ft 381kts
14-Dec-18 15:07 46.258352 -120.435147 71 18773ft 383kts
14-Dec-18 15:09 46.307830 -120.277660 71 18775ft 385kts
14-Dec-18 15:09 46.343349 -120.164272 71 18779ft 386kts
14-Dec-18 15:11 46.392961 -120.005440 71 18781ft 386kts
14-Dec-18 15:11 46.428528 -119.891042 71 18767ft 387kts
14-Dec-18 15:12 46.494518 -119.771695 47 18769ft 399kts
14-Dec-18 15:13 46.570134 -119.659101 49 18771ft 398kts
14-Dec-18 15:14 46.643653 -119.545055 49 18773ft 398kts
14-Dec-18 15:15 46.716698 -119.431674 49 18769ft 399kts
14-Dec-18 15:16 46.789593 -119.318481 49 18766ft 399kts
14-Dec-18 15:17 46.862309 -119.204888 50 18702ft 398kts
14-Dec-18 15:18 46.933991 -119.092696 50 17237ft 390kts
14-Dec-18 15:19 47.004166 -118.981955 50 15983ft 380kts
14-Dec-18 15:20 47.073063 -118.873127 49 14723ft 372kts
14-Dec-18 15:21 47.140416 -118.766314 49 13467ft 366kts
14-Dec-18 15:22 47.207437 -118.659501 49 12350ft 356kts
14-Dec-18 15:23 47.270599 -118.558725 49 11572ft 336kts
14-Dec-18 15:24 47.328213 -118.466859 50 10430ft 302kts
14-Dec-18 15:25 47.382137 -118.380059 51 8987ft 293kts
14-Dec-18 15:26 47.429010 -118.292968 72 7590ft 257kts
14-Dec-18 15:27 47.447281 -118.205698 78 6627ft 228kts
14-Dec-18 15:28 47.465055 -118.116483 77 5670ft 238kts
14-Dec-18 15:29 47.474662 -118.022809 84 4707ft 239kts
14-Dec-18 15:30 47.479578 -117.929004 85 4039ft 224kts
14-Dec-18 15:31 47.485519 -117.846666 75 3994ft 195kts
14-Dec-18 15:32 47.498361 -117.774626 74 4000ft 183kts
14-Dec-18 15:33 47.510942 -117.707971 66 3995ft 167kts
14-Dec-18 15:34 47.537404 -117.655057 43 3981ft 168kts
14-Dec-18 15:35 47.568915 -117.614481 45 3258ft 130kts
14-Dec-18 15:36 47.593760 -117.574922 48 2849ft 127kts
14-Dec-18 15:37 47.617620 -117.538807 43 2380ft 104kts
14-Dec-18 15:38 47.623533 -117.531061 355 2379ft 0kts
14-Dec-18 15:39 47.624925 -117.532205 318 2380ft 8kts
14-Dec-18 15:40 47.624846 -117.534388 238 2379ft 1kts
14-Dec-18 15:41 47.624516 -117.535438 262 2379ft 5kts
14-Dec-18 15:42 47.624869 -117.536448 309 2379ft 2kts
14-Dec-18 15:43 47.624925 -117.536549 309 2379ft 0kts
14-Dec-18 15:44 47.624925 -117.536549 309 2379ft 0kts
14-Dec-18 15:45 47.624925 -117.536549 309 2379ft 0kts

Navigation Log

Ident Type
Flight plan parsing failed, navigation log unavailable